Nord Kitan — 9V3632 — position and weather

sailwx.info

Track history (hours):
 
Tides and Currents Weather Stations Pressure Air Temp Water Temp Dewpoint Dewpoint Depression Visibility Wind Speed Wind Dir Waves Ship Positions

Nord Kitan

Last reported at 2017-Dec-15 10:35 UTC. Time now 2017-Dec-15 13:52 UTC.
Position S 07°09' E 112°40'.

Length 200 m; draft 10.6 m.

Type: Cargo ship. MMSI: 563008700.

Date/timePositionNaut miles runAvg speedWind from/ knotsBaromVisibWave heightAir tempDewpointWater temp
2017-Dec-15 10:35S 07°09' E 112°40'0 0.1
2017-Dec-15 10:28S 07°09' E 112°40'1 1.3
2017-Dec-15 09:56S 07°08' E 112°39'3 7.0
2017-Dec-15 09:27S 07°05' E 112°40'511.1
2017-Dec-15 09:00S 06°60' E 112°41'4 9.1
2017-Dec-15 08:30S 06°56' E 112°43'5 9.7
2017-Dec-15 07:59S 06°51' E 112°45'2 0.3
2017-Dec-15 00:33S 06°49' E 112°46'0 1.6
2017-Dec-15 00:31S 06°49' E 112°46'  
Track history (hours):
 
Tides and Currents Weather Stations Pressure Air Temp Water Temp Dewpoint Dewpoint Depression Visibility Wind Speed Wind Dir Waves Ship Positions

Nord Kitan

Last reported at 2017-Dec-15 10:35 UTC. Time now 2017-Dec-15 13:52 UTC.
Position S 07°09' E 112°40'.

Length 200 m; draft 10.6 m.

Type: Cargo ship. MMSI: 563008700.

Date/timePositionNaut miles runAvg speedWind from/ knotsBaromVisibWave heightAir tempDewpointWater temp
2017-Dec-15 10:35S 07°09' E 112°40'0 0.1
2017-Dec-15 10:28S 07°09' E 112°40'1 1.3
2017-Dec-15 09:56S 07°08' E 112°39'3 7.0
2017-Dec-15 09:27S 07°05' E 112°40'511.1
2017-Dec-15 09:00S 06°60' E 112°41'4 9.1
2017-Dec-15 08:30S 06°56' E 112°43'5 9.7
2017-Dec-15 07:59S 06°51' E 112°45'2 0.3
2017-Dec-15 00:33S 06°49' E 112°46'0 1.6
2017-Dec-15 00:31S 06°49' E 112°46'  

Dump ship's entire track history